createdAt,value
2017-10-02T03:30:41.664Z,12.40
2017-10-02T03:33:09.333Z,12.20
2017-10-02T03:35:37.045Z,14.47
2017-10-02T03:38:04.678Z,13.27
2017-10-02T03:40:32.299Z,15.70
2017-10-02T03:42:59.936Z,14.23
2017-10-02T03:45:27.547Z,12.70
2017-10-02T03:47:55.148Z,14.23
2017-10-02T03:50:22.759Z,13.13
2017-10-02T03:52:50.364Z,15.40
2017-10-02T03:55:19.122Z,17.30
2017-10-02T03:57:46.744Z,15.80
2017-10-02T04:00:14.361Z,18.27
2017-10-02T04:02:42.057Z,18.10
2017-10-02T04:05:09.648Z,16.50
2017-10-02T04:07:37.253Z,15.97
2017-10-02T04:10:05.636Z,14.70
2017-10-02T04:12:34.014Z,15.60
2017-10-02T04:15:04.193Z,17.03
2017-10-02T04:17:31.783Z,15.30
2017-10-02T04:20:00.147Z,14.23
2017-10-02T04:22:27.782Z,16.23
2017-10-02T04:24:55.397Z,14.43
2017-10-02T04:27:23.760Z,19.53
2017-10-02T04:29:52.532Z,21.23
2017-10-02T04:32:20.134Z,14.43
2017-10-02T04:34:47.734Z,17.73
2017-10-02T04:37:15.367Z,17.13
2017-10-02T04:39:42.977Z,14.50
2017-10-02T04:42:10.618Z,15.97
2017-10-02T04:44:38.227Z,15.83
2017-10-02T04:47:06.595Z,17.30
2017-10-02T04:49:35.001Z,15.63
2017-10-02T04:52:02.620Z,18.90
2017-10-02T04:54:30.444Z,22.30
2017-10-02T04:56:58.071Z,21.60
2017-10-02T04:59:26.436Z,19.47
2017-10-02T05:01:54.073Z,20.93
2017-10-02T05:04:21.672Z,20.30
2017-10-02T05:06:50.044Z,17.23
2017-10-02T05:09:18.450Z,17.93
2017-10-02T05:11:46.052Z,23.07
2017-10-02T05:14:13.700Z,22.83
2017-10-02T05:16:41.338Z,18.57
2017-10-02T05:19:08.941Z,18.10
2017-10-02T05:21:36.564Z,15.77
2017-10-02T05:24:04.165Z,16.13
2017-10-02T05:26:31.796Z,16.73
2017-10-02T05:28:59.404Z,18.00
2017-10-02T05:31:27.771Z,16.50
2017-10-02T05:33:55.420Z,21.13
2017-10-02T05:36:23.021Z,20.07
2017-10-02T05:38:51.406Z,18.03
2017-10-02T05:41:19.033Z,23.47
2017-10-02T05:43:46.650Z,22.47
2017-10-02T05:46:14.285Z,21.80
2017-10-02T05:48:41.896Z,20.73
2017-10-02T05:51:09.507Z,19.90
2017-10-02T05:53:37.153Z,14.63
2017-10-02T05:56:05.524Z,18.20
2017-10-02T05:58:33.175Z,18.67
2017-10-02T06:01:00.806Z,21.63
2017-10-02T06:03:28.413Z,19.60
2017-10-02T06:05:56.816Z,18.33
2017-10-02T06:08:24.421Z,18.87
2017-10-02T06:10:52.068Z,21.70
2017-10-02T06:13:19.680Z,20.07
2017-10-02T06:15:48.054Z,23.40
2017-10-02T06:18:16.466Z,24.83
2017-10-02T06:20:44.497Z,24.43
2017-10-02T06:23:12.094Z,25.17
2017-10-02T06:25:39.718Z,33.07
2017-10-02T06:28:08.094Z,31.77
2017-10-02T06:30:35.731Z,27.67
2017-10-02T06:33:03.339Z,21.80
2017-10-02T06:35:30.952Z,32.53
2017-10-02T06:37:59.374Z,22.97
2017-10-02T06:40:27.768Z,27.23
2017-10-02T06:42:55.447Z,34.77
2017-10-02T06:45:23.153Z,38.90
2017-10-02T06:47:50.761Z,24.80
2017-10-02T06:50:18.393Z,23.60
2017-10-02T06:52:46.766Z,21.93
2017-10-02T06:55:15.139Z,21.73
2017-10-02T06:57:43.089Z,26.73
2017-10-02T07:00:10.694Z,23.67
2017-10-02T07:02:38.334Z,20.73
2017-10-02T07:05:05.972Z,23.37
2017-10-02T07:07:33.585Z,18.67
2017-10-02T07:10:01.224Z,22.50
2017-10-02T07:12:29.607Z,20.27
2017-10-02T07:14:57.979Z,20.97
2017-10-02T07:17:26.385Z,24.90
2017-10-02T07:19:53.989Z,18.17
2017-10-02T07:22:21.623Z,21.87
2017-10-02T07:24:50.182Z,18.50
2017-10-02T07:27:17.777Z,20.10
2017-10-02T07:29:45.392Z,21.17
2017-10-02T07:32:13.782Z,21.90
2017-10-02T07:34:41.388Z,25.10
2017-10-02T07:37:09.029Z,24.07
2017-10-02T07:39:36.828Z,22.93
2017-10-02T07:42:04.434Z,23.10
2017-10-02T07:44:32.066Z,27.60
2017-10-02T07:47:00.436Z,24.67
2017-10-02T07:49:28.075Z,22.27
2017-10-02T07:51:55.737Z,20.37
2017-10-02T07:54:23.342Z,19.50
2017-10-02T07:56:51.708Z,20.20
2017-10-02T07:59:20.198Z,19.50
2017-10-02T08:01:48.886Z,19.50
2017-10-02T08:04:17.254Z,13.67
2017-10-02T08:06:45.692Z,14.93
2017-10-02T08:09:13.307Z,15.70
2017-10-02T08:11:41.694Z,15.00
2017-10-02T08:14:09.331Z,19.23
2017-10-02T08:16:36.938Z,17.57
2017-10-02T08:19:04.552Z,16.00
2017-10-02T08:21:32.168Z,14.93
2017-10-02T08:23:59.768Z,14.80
2017-10-02T08:26:27.386Z,16.50
2017-10-02T08:28:55.002Z,16.17
2017-10-02T08:31:23.372Z,17.63
2017-10-02T08:33:51.326Z,17.23
2017-10-02T08:36:18.981Z,15.80
2017-10-02T08:38:46.856Z,19.77
2017-10-02T08:41:14.483Z,19.50
2017-10-02T08:43:42.087Z,16.30
2017-10-02T08:46:09.729Z,21.40
2017-10-02T08:48:37.348Z,17.80
2017-10-02T08:51:04.957Z,17.40
2017-10-02T08:53:32.639Z,15.63
2017-10-02T08:56:00.240Z,16.10
2017-10-02T08:58:27.874Z,18.90
2017-10-02T09:00:56.250Z,19.40
2017-10-02T09:03:24.613Z,17.77
2017-10-02T09:05:52.251Z,17.90
2017-10-02T09:08:19.852Z,17.83
2017-10-02T09:10:48.247Z,20.17
2017-10-02T09:13:15.854Z,16.53
2017-10-02T09:15:43.452Z,17.50
2017-10-02T09:18:11.841Z,19.03
2017-10-02T09:20:39.489Z,20.57
2017-10-02T09:23:07.913Z,23.10
2017-10-02T09:25:35.518Z,18.27
2017-10-02T09:28:03.104Z,14.60
2017-10-02T09:30:30.739Z,15.63
2017-10-02T09:32:58.342Z,15.60
2017-10-02T09:35:25.931Z,18.63
2017-10-02T09:37:53.589Z,13.70
2017-10-02T09:40:21.198Z,18.60
2017-10-02T09:42:49.568Z,12.17
2017-10-02T09:45:17.954Z,9.70
2017-10-02T09:47:46.313Z,13.30
2017-10-02T09:50:14.743Z,12.83
2017-10-02T09:52:42.340Z,13.87
2017-10-02T09:55:09.945Z,17.63
2017-10-02T09:57:37.589Z,17.40
2017-10-02T10:00:05.949Z,15.50
2017-10-02T10:02:33.613Z,15.30
2017-10-02T10:05:01.211Z,11.67
2017-10-02T10:07:28.820Z,12.27
2017-10-02T10:09:56.436Z,13.27
2017-10-02T10:12:24.039Z,11.93
2017-10-02T10:14:51.698Z,12.53
2017-10-02T10:17:19.340Z,12.53
2017-10-02T10:19:46.940Z,14.30
2017-10-02T10:22:14.558Z,12.33
2017-10-02T10:24:42.174Z,12.37
2017-10-02T10:27:10.577Z,13.80
2017-10-02T10:29:38.194Z,15.33
2017-10-02T10:32:05.798Z,12.30
2017-10-02T10:34:33.410Z,11.17
2017-10-02T10:37:01.014Z,10.97
2017-10-02T10:39:28.641Z,12.10
2017-10-02T10:41:56.264Z,14.47
2017-10-02T10:44:24.054Z,12.63
2017-10-02T10:46:51.693Z,12.00
2017-10-02T10:49:19.290Z,12.23
2017-10-02T10:51:46.937Z,14.10
2017-10-02T10:54:14.535Z,12.10
2017-10-02T10:56:42.905Z,11.67
2017-10-02T10:59:11.308Z,13.27
2017-10-02T11:01:38.916Z,13.10
2017-10-02T11:04:06.557Z,12.20
2017-10-02T11:06:34.161Z,10.87
2017-10-02T11:09:04.587Z,12.67
2017-10-02T11:11:43.941Z,13.27
2017-10-02T11:14:11.548Z,12.00
2017-10-02T11:19:15.201Z,8.30
2017-10-02T11:21:43.266Z,8.40
2017-10-02T11:24:10.882Z,8.90
2017-10-02T11:26:38.495Z,8.37
2017-10-02T11:29:06.097Z,9.63
2017-10-02T11:31:33.705Z,11.03
2017-10-02T11:34:01.808Z,9.87
2017-10-02T11:36:29.406Z,9.53
2017-10-02T11:38:57.005Z,10.90
2017-10-02T11:41:24.612Z,11.47
2017-10-02T11:43:52.220Z,10.90
2017-10-02T11:46:20.285Z,13.10
2017-10-02T11:48:47.893Z,15.63
2017-10-02T11:51:15.521Z,9.53
2017-10-02T11:53:43.591Z,15.10
2017-10-02T11:56:11.971Z,12.30
2017-10-02T11:58:39.630Z,14.10
2017-10-02T12:01:07.293Z,12.33
2017-10-02T12:03:34.896Z,9.70
2017-10-02T12:06:02.905Z,17.17
2017-10-02T12:08:30.512Z,11.77
2017-10-02T12:10:58.113Z,10.30
2017-10-02T12:13:25.738Z,10.67
2017-10-02T12:15:53.332Z,9.23
2017-10-02T12:18:21.318Z,10.40
2017-10-02T12:20:48.943Z,9.10
2017-10-02T12:23:16.536Z,8.80
2017-10-02T12:25:44.161Z,7.40
2017-10-02T12:28:11.764Z,9.70
2017-10-02T12:30:39.739Z,9.33
2017-10-02T12:33:07.338Z,7.63
2017-10-02T12:35:34.949Z,8.67
2017-10-02T12:38:02.578Z,9.47
2017-10-02T12:40:30.202Z,9.13
2017-10-02T12:42:58.945Z,12.17
2017-10-02T12:45:26.544Z,7.63
2017-10-02T12:47:54.921Z,8.13
2017-10-02T12:50:23.319Z,10.20
2017-10-02T12:52:51.702Z,6.20
2017-10-02T12:55:19.713Z,6.53
2017-10-02T12:57:47.373Z,7.10
2017-10-02T13:00:14.971Z,6.67
2017-10-02T13:02:43.362Z,7.00
2017-10-02T13:05:11.759Z,7.33
2017-10-02T13:07:39.745Z,8.47
2017-10-02T13:10:07.371Z,6.80
2017-10-02T13:12:35.740Z,6.33
2017-10-02T13:15:04.147Z,7.30
2017-10-02T13:17:31.747Z,5.70
2017-10-02T13:19:59.703Z,8.83
2017-10-02T13:22:27.312Z,6.77
2017-10-02T13:24:55.673Z,5.67
2017-10-02T13:27:23.332Z,6.00
2017-10-02T13:29:50.932Z,8.13
2017-10-02T13:32:18.897Z,6.93
2017-10-02T13:34:46.498Z,6.53
2017-10-02T13:37:14.094Z,6.20
2017-10-02T13:39:42.480Z,6.20
2017-10-02T13:42:10.890Z,5.90
2017-10-02T13:44:38.906Z,6.53
2017-10-02T13:47:06.593Z,6.90
2017-10-02T13:49:34.973Z,6.40
2017-10-02T13:52:03.360Z,7.40
2017-10-02T13:54:31.814Z,9.17
2017-10-02T13:56:59.885Z,7.63
2017-10-02T13:59:27.491Z,8.07
2017-10-02T14:01:55.090Z,8.70
2017-10-02T14:04:22.689Z,6.17
2017-10-02T14:06:51.049Z,8.73
2017-10-02T14:09:19.032Z,7.13
2017-10-02T14:11:47.413Z,10.57
2017-10-02T14:14:15.784Z,6.43
2017-10-02T14:16:44.178Z,7.70
2017-10-02T14:19:11.780Z,7.30
2017-10-02T14:21:39.768Z,7.33
2017-10-02T14:24:07.377Z,10.93
2017-10-02T14:26:34.990Z,7.23
2017-10-02T14:29:02.954Z,7.33
2017-10-02T14:31:30.609Z,10.63
2017-10-02T14:33:58.323Z,6.23
2017-10-02T14:36:31.017Z,6.13
2017-10-02T14:48:05.212Z,11.77
2017-10-02T14:53:26.893Z,6.00
2017-10-02T14:58:50.961Z,6.50
2017-10-02T15:01:47.139Z,5.78
2017-10-02T15:04:16.804Z,5.80
2017-10-02T15:06:58.053Z,5.13
2017-10-02T15:09:28.386Z,4.97
2017-10-02T15:12:02.434Z,4.87
2017-10-02T15:14:41.051Z,5.37
2017-10-02T15:17:35.284Z,7.23
2017-10-02T15:23:01.306Z,5.50
2017-10-02T15:25:30.693Z,6.87
2017-10-02T15:27:58.692Z,6.97
2017-10-02T15:30:26.291Z,6.43
2017-10-02T15:32:53.887Z,4.97
2017-10-02T15:35:21.506Z,6.93
2017-10-02T15:37:49.103Z,7.60
2017-10-02T15:40:17.269Z,5.37
2017-10-02T15:42:44.874Z,5.73
2017-10-02T15:45:12.501Z,5.27
2017-10-02T15:47:50.957Z,5.27
2017-10-02T15:50:18.558Z,5.33
2017-10-02T15:52:46.662Z,6.03
2017-10-02T15:55:15.100Z,6.47
2017-10-02T15:57:42.710Z,5.30
2017-10-02T16:00:13.258Z,4.57
2017-10-02T16:02:40.966Z,5.40
2017-10-02T16:05:09.054Z,5.70
2017-10-02T16:07:36.653Z,8.00
2017-10-02T16:10:09.931Z,5.70
2017-10-02T16:15:24.045Z,5.80
2017-10-02T16:17:54.899Z,5.57
2017-10-02T16:20:22.580Z,5.90
2017-10-02T16:22:50.962Z,8.20
2017-10-02T16:25:19.404Z,6.50
2017-10-02T16:27:47.020Z,6.50
2017-10-02T16:30:15.535Z,7.87
2017-10-02T16:32:43.129Z,6.13
2017-10-02T16:35:11.104Z,6.50
2017-10-02T16:37:38.770Z,7.07
2017-10-02T16:40:06.473Z,6.53
2017-10-02T16:42:34.081Z,6.70
2017-10-02T16:45:01.689Z,6.23
2017-10-02T16:47:29.703Z,7.53
2017-10-02T16:49:57.313Z,8.73
2017-10-02T16:52:24.904Z,7.03
2017-10-02T16:54:52.498Z,6.13
2017-10-02T16:57:20.104Z,6.57
2017-10-02T16:59:48.417Z,8.97
2017-10-02T17:02:16.814Z,8.00
2017-10-02T17:04:45.208Z,7.60
2017-10-02T17:07:13.953Z,8.03
2017-10-02T17:09:42.953Z,7.90
2017-10-02T17:12:10.651Z,6.10
2017-10-02T17:14:39.021Z,7.57
2017-10-02T17:17:07.404Z,5.50
2017-10-02T17:19:35.929Z,7.10
2017-10-02T17:22:04.195Z,5.87
2017-10-02T17:24:32.221Z,6.90
2017-10-02T17:26:59.829Z,7.27
2017-10-02T17:29:27.427Z,7.77
2017-10-02T17:31:55.179Z,7.17
2017-10-02T17:34:22.780Z,6.70
2017-10-02T17:36:51.889Z,6.57
2017-10-02T17:39:20.562Z,6.03
2017-10-02T17:41:48.936Z,6.03
2017-10-02T17:44:17.314Z,7.37
2017-10-02T17:46:45.690Z,9.87
2017-10-02T17:49:13.749Z,8.40
2017-10-02T17:51:41.372Z,8.40
2017-10-02T17:54:08.995Z,7.10
2017-10-02T17:56:37.752Z,7.33
2017-10-02T17:59:05.350Z,7.67
2017-10-02T18:01:33.031Z,8.40
2017-10-02T18:04:01.050Z,8.37
2017-10-02T18:06:28.693Z,11.53
2017-10-02T18:08:57.051Z,7.07
2017-10-02T18:11:25.338Z,6.87
2017-10-02T18:13:52.943Z,6.93
2017-10-02T18:16:21.322Z,7.13
2017-10-02T18:18:50.116Z,7.30
2017-10-02T18:21:18.039Z,6.67
2017-10-02T18:23:45.639Z,10.03
2017-10-02T18:26:14.452Z,7.90
2017-10-02T18:28:42.055Z,7.63
2017-10-02T18:31:09.657Z,8.50
2017-10-02T18:33:38.433Z,8.33
2017-10-02T18:36:06.029Z,6.07
2017-10-02T18:38:33.660Z,6.50
2017-10-02T18:41:03.770Z,6.10
2017-10-02T18:43:31.391Z,6.53
2017-10-02T18:45:59.415Z,8.17
2017-10-02T18:48:27.879Z,7.23
2017-10-02T18:50:55.508Z,6.20
2017-10-02T18:53:24.038Z,6.00
2017-10-02T18:55:52.493Z,8.10
2017-10-02T18:58:20.973Z,6.13
2017-10-02T19:00:50.657Z,6.93
2017-10-02T19:03:22.299Z,6.10
2017-10-02T19:05:50.329Z,10.50
2017-10-02T19:08:18.869Z,7.07
2017-10-02T19:10:46.497Z,7.10
2017-10-02T19:13:14.149Z,7.60
2017-10-02T19:15:41.803Z,8.17
2017-10-02T19:18:10.699Z,8.37
2017-10-02T19:20:40.043Z,7.43
2017-10-02T19:23:07.654Z,7.03
2017-10-02T19:25:36.030Z,11.93
2017-10-02T19:28:05.280Z,8.27
2017-10-02T19:30:35.923Z,9.23
2017-10-02T19:33:03.580Z,7.93
2017-10-02T19:35:31.197Z,7.17
2017-10-02T19:37:58.829Z,7.83
2017-10-02T19:40:26.474Z,6.90
2017-10-02T19:42:54.597Z,7.97
2017-10-02T19:45:22.206Z,8.70
2017-10-02T19:47:50.567Z,8.70
2017-10-02T19:50:19.064Z,9.43
2017-10-02T19:52:46.705Z,7.87
2017-10-02T19:55:14.697Z,8.17
2017-10-02T19:57:42.375Z,7.73
2017-10-02T20:00:10.304Z,8.00
2017-10-02T20:02:38.323Z,8.80
2017-10-02T20:05:06.718Z,8.83
2017-10-02T20:07:35.091Z,7.73
2017-10-02T20:10:04.021Z,8.20
2017-10-02T20:12:31.624Z,8.27
2017-10-02T20:14:59.697Z,10.10
2017-10-02T20:17:27.317Z,8.87
2017-10-02T20:19:54.920Z,11.33
2017-10-02T20:22:22.738Z,9.33
2017-10-02T20:24:51.178Z,8.70
2017-10-02T20:27:20.869Z,8.67
2017-10-02T20:29:48.601Z,9.10
2017-10-02T20:32:16.181Z,9.27
2017-10-02T20:34:43.800Z,10.13
2017-10-02T20:37:11.413Z,7.63
2017-10-02T20:39:39.498Z,9.50
2017-10-02T20:42:07.859Z,10.53
2017-10-02T20:44:35.790Z,8.97
2017-10-02T20:47:03.416Z,8.10
2017-10-02T20:49:31.017Z,8.20
2017-10-02T20:51:59.840Z,8.87
2017-10-02T20:54:27.437Z,11.73
2017-10-02T20:56:55.835Z,8.73
2017-10-02T20:59:23.840Z,8.40
2017-10-02T21:01:51.444Z,10.17
2017-10-02T21:04:19.078Z,9.30
2017-10-02T21:06:46.694Z,13.67
2017-10-02T21:09:14.381Z,9.20
2017-10-02T21:11:42.365Z,9.73
2017-10-02T21:14:09.976Z,11.40
2017-10-02T21:16:37.630Z,9.60
2017-10-02T21:19:05.302Z,8.70
2017-10-02T21:21:32.984Z,9.33
2017-10-02T21:24:01.796Z,9.67
2017-10-02T21:26:29.397Z,9.80
2017-10-02T21:28:57.002Z,9.43
2017-10-02T21:31:24.619Z,10.73
2017-10-02T21:33:52.212Z,9.93
2017-10-02T21:36:20.206Z,10.50
2017-10-02T21:38:47.796Z,8.50
2017-10-02T21:41:16.167Z,8.60
2017-10-02T21:43:44.911Z,9.43
2017-10-02T21:46:12.501Z,8.60
2017-10-02T21:48:40.122Z,15.60
2017-10-02T21:51:08.116Z,9.00
2017-10-02T21:53:35.716Z,9.03
2017-10-02T21:56:04.073Z,11.40
2017-10-02T21:58:32.128Z,10.07
2017-10-02T22:00:59.728Z,10.83
2017-10-02T22:03:28.089Z,11.10
2017-10-02T22:05:56.480Z,9.97
2017-10-02T22:08:24.858Z,9.47
2017-10-02T22:10:53.633Z,11.10
2017-10-02T22:13:21.246Z,12.73
2017-10-02T22:15:48.846Z,9.97
2017-10-02T22:18:16.544Z,9.03
2017-10-02T22:20:44.142Z,11.00
2017-10-02T22:23:12.240Z,12.37
2017-10-02T22:25:39.861Z,11.57
2017-10-02T22:28:07.464Z,14.23
